createdAt,value
2023-02-04T00:01:18.805Z,73.59
2023-02-04T00:03:40.211Z,75.21
2023-02-04T00:06:01.739Z,73.91
2023-02-04T00:08:23.281Z,74.26
2023-02-04T00:10:44.713Z,76.27
2023-02-04T00:13:06.292Z,75.65
2023-02-04T00:15:27.824Z,75.77
2023-02-04T00:17:49.235Z,77.99
2023-02-04T00:20:11.155Z,78.93
2023-02-04T00:22:32.605Z,80.98
2023-02-04T00:24:54.070Z,81.70
2023-02-04T00:27:16.427Z,81.51
2023-02-04T00:29:37.886Z,82.04
2023-02-04T00:31:59.532Z,81.94
2023-02-04T00:34:21.128Z,83.35
2023-02-04T00:36:42.583Z,84.81
2023-02-04T00:39:04.093Z,86.69
2023-02-04T00:41:25.517Z,86.79
2023-02-04T00:43:46.919Z,89.02
2023-02-04T00:46:08.423Z,88.91
2023-02-04T00:48:29.967Z,91.09
2023-02-04T00:50:53.102Z,92.97
2023-02-04T00:53:14.722Z,94.15
2023-02-04T00:55:36.164Z,94.48
2023-02-04T00:57:57.626Z,96.47
2023-02-04T01:00:19.426Z,95.96
2023-02-04T01:02:40.945Z,96.76
2023-02-04T01:05:02.547Z,96.67
2023-02-04T01:07:23.972Z,97.58
2023-02-04T01:09:45.442Z,98.54
2023-02-04T01:12:07.028Z,98.26
2023-02-04T01:14:28.486Z,99.43
2023-02-04T01:16:50.095Z,100.00
2023-02-04T01:19:11.880Z,100.00
2023-02-04T01:21:33.422Z,100.00
2023-02-04T01:23:54.948Z,100.00
2023-02-04T01:26:20.090Z,100.00
2023-02-04T01:28:41.557Z,100.00
2023-02-04T01:31:03.080Z,100.00
2023-02-04T01:33:24.598Z,100.00
2023-02-04T01:35:46.053Z,100.00
2023-02-04T01:38:07.636Z,100.00
2023-02-04T01:40:29.834Z,100.00
2023-02-04T01:42:52.340Z,100.00
2023-02-04T01:45:13.877Z,100.00
2023-02-04T01:47:35.497Z,100.00
2023-02-04T01:49:57.173Z,100.00
2023-02-04T01:52:18.875Z,100.00
2023-02-04T01:54:40.417Z,100.00
2023-02-04T01:57:02.442Z,100.00
2023-02-04T01:59:24.305Z,100.00
2023-02-04T02:01:48.484Z,100.00
2023-02-04T02:04:12.078Z,100.00
2023-02-04T02:06:34.760Z,100.00
2023-02-04T02:08:58.305Z,100.00
2023-02-04T02:11:20.110Z,100.00
2023-02-04T02:13:41.559Z,100.00
2023-02-04T02:16:03.114Z,100.00
2023-02-04T02:18:25.277Z,100.00
2023-02-04T02:20:46.836Z,100.00
2023-02-04T02:23:39.253Z,100.00
2023-02-04T02:26:00.749Z,100.00
2023-02-04T02:28:23.860Z,100.00
2023-02-04T02:30:46.109Z,100.00
2023-02-04T02:33:08.055Z,100.00
2023-02-04T02:35:29.644Z,100.00
2023-02-04T02:37:51.480Z,100.00
2023-02-04T02:40:13.993Z,100.00
2023-02-04T02:42:36.184Z,99.49
2023-02-04T02:44:58.383Z,100.00
2023-02-04T02:47:22.638Z,100.00
2023-02-04T02:49:44.528Z,100.00
2023-02-04T02:52:05.974Z,100.00
2023-02-04T02:54:30.913Z,100.00
2023-02-04T02:56:53.275Z,100.00
2023-02-04T02:59:16.344Z,100.00
2023-02-04T03:01:37.858Z,100.00
2023-02-04T03:03:59.386Z,100.00
2023-02-04T03:06:26.335Z,100.00
2023-02-04T03:08:50.571Z,100.00
2023-02-04T03:11:12.090Z,100.00
2023-02-04T03:13:37.097Z,100.00
2023-02-04T03:15:58.763Z,100.00
2023-02-04T03:18:21.192Z,99.69
2023-02-04T03:20:43.006Z,99.31
2023-02-04T03:23:04.466Z,99.53
2023-02-04T03:25:28.234Z,99.13
2023-02-04T03:27:49.807Z,100.00
2023-02-04T03:30:11.567Z,100.00
2023-02-04T03:32:33.070Z,100.00
2023-02-04T03:34:54.469Z,100.00
2023-02-04T03:37:16.152Z,100.00
2023-02-04T03:39:37.633Z,100.00
2023-02-04T03:41:59.454Z,100.00
2023-02-04T03:44:21.827Z,100.00
2023-02-04T03:46:43.308Z,100.00
2023-02-04T03:49:04.740Z,100.00
2023-02-04T03:51:26.415Z,100.00
2023-02-04T03:53:47.823Z,100.00
2023-02-04T03:56:10.464Z,100.00
2023-02-04T03:58:31.909Z,100.00
2023-02-04T04:00:53.505Z,100.00
2023-02-04T04:03:15.014Z,100.00
2023-02-04T04:05:36.793Z,100.00
2023-02-04T04:07:59.164Z,100.00
2023-02-04T04:10:20.622Z,100.00
2023-02-04T04:12:42.280Z,100.00
2023-02-04T04:15:04.244Z,100.00
2023-02-04T04:17:25.773Z,100.00
2023-02-04T04:19:47.192Z,100.00
2023-02-04T04:22:08.633Z,99.21
2023-02-04T04:24:30.057Z,99.20
2023-02-04T04:26:51.522Z,98.44
2023-02-04T04:29:12.963Z,98.61
2023-02-04T04:31:34.515Z,98.43
2023-02-04T04:33:56.065Z,98.42
2023-02-04T04:36:17.513Z,98.84
2023-02-04T04:38:39.160Z,98.73
2023-02-04T04:41:00.780Z,97.71
2023-02-04T04:43:22.318Z,99.03
2023-02-04T04:45:43.739Z,98.14
2023-02-04T04:48:05.414Z,97.63
2023-02-04T04:50:26.982Z,97.99
2023-02-04T04:52:48.451Z,98.10
2023-02-04T04:55:10.219Z,97.45
2023-02-04T04:57:31.893Z,97.44
2023-02-04T04:59:53.413Z,97.31
2023-02-04T05:02:14.861Z,97.25
2023-02-04T05:04:36.432Z,96.59
2023-02-04T05:06:57.889Z,96.59
2023-02-04T05:09:19.397Z,96.47
2023-02-04T05:11:40.793Z,95.99
2023-02-04T05:14:02.305Z,95.40
2023-02-04T05:16:23.869Z,95.50
2023-02-04T05:18:45.655Z,95.71
2023-02-04T05:21:07.611Z,95.77
2023-02-04T05:23:29.108Z,96.26
2023-02-04T05:25:50.544Z,96.03
2023-02-04T05:28:12.087Z,95.87
2023-02-04T05:30:33.962Z,96.52
2023-02-04T05:32:55.681Z,96.14
2023-02-04T05:35:17.286Z,95.63
2023-02-04T05:37:38.836Z,95.05
2023-02-04T05:40:00.295Z,94.84
2023-02-04T05:42:21.853Z,94.30
2023-02-04T05:44:43.327Z,95.18
2023-02-04T05:47:04.801Z,94.27
2023-02-04T05:49:26.276Z,94.56
2023-02-04T05:51:47.707Z,94.26
2023-02-04T05:54:09.155Z,94.27
2023-02-04T05:56:30.600Z,93.86
2023-02-04T05:58:52.075Z,93.08
2023-02-04T06:01:13.601Z,93.75
2023-02-04T06:03:35.213Z,93.68
2023-02-04T06:05:57.107Z,94.64
2023-02-04T06:08:18.644Z,94.74
2023-02-04T06:10:40.132Z,93.79
2023-02-04T06:13:01.601Z,94.12
2023-02-04T06:15:23.142Z,94.76
2023-02-04T06:17:44.597Z,95.62
2023-02-04T06:20:07.525Z,96.02
2023-02-04T06:22:29.106Z,95.41
2023-02-04T06:24:50.536Z,95.32
2023-02-04T06:27:11.968Z,95.75
2023-02-04T06:29:33.439Z,96.33
2023-02-04T06:31:54.941Z,95.78
2023-02-04T06:34:16.518Z,95.06
2023-02-04T06:36:37.981Z,94.54
2023-02-04T06:38:59.688Z,94.21
2023-02-04T06:41:21.130Z,94.55
2023-02-04T06:43:42.584Z,94.65
2023-02-04T06:46:04.234Z,93.85
2023-02-04T06:48:25.786Z,93.86
2023-02-04T06:50:47.538Z,93.67
2023-02-04T06:53:09.083Z,93.12
2023-02-04T06:55:30.579Z,92.86
2023-02-04T06:57:52.013Z,92.24
2023-02-04T07:00:13.952Z,92.62
2023-02-04T07:02:36.692Z,92.10
2023-02-04T07:05:00.439Z,91.57
2023-02-04T07:07:21.891Z,91.65
2023-02-04T07:09:43.372Z,91.22
2023-02-04T07:12:05.303Z,91.09
2023-02-04T07:14:26.763Z,91.03
2023-02-04T07:16:48.217Z,90.68
2023-02-04T07:19:09.674Z,90.63
2023-02-04T07:21:31.208Z,90.30
2023-02-04T07:23:52.754Z,90.38
2023-02-04T07:26:14.264Z,90.67
2023-02-04T07:28:36.957Z,90.43
2023-02-04T07:30:58.526Z,90.09
2023-02-04T07:33:19.976Z,89.87
2023-02-04T07:35:41.507Z,89.98
2023-02-04T07:38:02.936Z,89.08
2023-02-04T07:40:24.592Z,89.87
2023-02-04T07:42:45.999Z,89.43
2023-02-04T07:45:08.628Z,89.09
2023-02-04T07:47:30.064Z,88.92
2023-02-04T07:49:51.521Z,89.30
2023-02-04T07:52:13.058Z,89.10
2023-02-04T07:54:34.561Z,88.94
2023-02-04T07:56:56.011Z,87.73
2023-02-04T07:59:17.488Z,87.88
2023-02-04T08:01:39.073Z,87.17
2023-02-04T08:04:00.586Z,87.03
2023-02-04T08:06:22.000Z,87.41
2023-02-04T08:08:43.423Z,87.76
2023-02-04T08:11:05.036Z,87.01
2023-02-04T08:13:26.543Z,87.31
2023-02-04T08:15:47.983Z,87.32
2023-02-04T08:18:09.448Z,86.52
2023-02-04T08:20:31.653Z,86.33
2023-02-04T08:22:53.233Z,85.86
2023-02-04T08:25:14.839Z,87.45
2023-02-04T08:27:36.265Z,88.75
2023-02-04T08:29:57.783Z,89.06
2023-02-04T08:32:19.199Z,88.32
2023-02-04T08:34:41.097Z,87.91
2023-02-04T08:37:02.968Z,87.11
2023-02-04T08:39:24.462Z,87.31
2023-02-04T08:41:45.980Z,87.08
2023-02-04T08:44:07.507Z,85.92
2023-02-04T08:46:29.392Z,83.38
2023-02-04T08:48:51.273Z,84.32
2023-02-04T08:51:12.755Z,84.77
2023-02-04T08:53:34.291Z,84.04
2023-02-04T08:55:55.784Z,84.51
2023-02-04T08:58:17.203Z,83.85
2023-02-04T09:00:38.737Z,83.04
2023-02-04T09:03:00.239Z,82.78
2023-02-04T09:05:21.809Z,82.29
2023-02-04T09:07:43.287Z,82.81
2023-02-04T09:10:04.980Z,82.93
2023-02-04T09:12:26.451Z,80.62
2023-02-04T09:14:48.233Z,81.85
2023-02-04T09:17:09.658Z,81.78
2023-02-04T09:19:31.117Z,81.50
2023-02-04T09:21:53.537Z,79.34
2023-02-04T09:24:14.979Z,78.65
2023-02-04T09:26:36.428Z,76.31
2023-02-04T09:28:57.854Z,76.93
2023-02-04T09:31:19.460Z,74.13
2023-02-04T09:33:41.343Z,73.99
2023-02-04T09:36:03.186Z,74.72
2023-02-04T09:38:24.891Z,73.42
2023-02-04T09:40:49.982Z,74.42
2023-02-04T09:43:20.141Z,75.51
2023-02-04T09:45:41.715Z,76.19
2023-02-04T09:48:05.299Z,76.55
2023-02-04T09:50:28.749Z,76.75
2023-02-04T09:52:52.640Z,76.32
2023-02-04T09:55:16.148Z,74.78
2023-02-04T09:57:37.589Z,75.26
2023-02-04T09:59:59.080Z,75.41
2023-02-04T10:02:26.635Z,74.94
2023-02-04T10:04:48.783Z,75.19
2023-02-04T10:07:13.061Z,76.14
2023-02-04T10:09:34.543Z,75.14
2023-02-04T10:11:56.060Z,75.10
2023-02-04T10:14:23.592Z,74.76
2023-02-04T10:16:54.334Z,74.46
2023-02-04T10:19:16.312Z,72.91
2023-02-04T10:21:37.856Z,72.95
2023-02-04T10:24:02.655Z,73.04
2023-02-04T10:26:28.388Z,72.15
2023-02-04T10:28:49.850Z,69.27
2023-02-04T10:31:31.800Z,68.07
2023-02-04T10:34:22.049Z,64.70
2023-02-04T10:36:46.024Z,63.29
2023-02-04T10:39:16.553Z,61.34
2023-02-04T10:41:40.095Z,62.34
2023-02-04T10:44:15.565Z,61.32
2023-02-04T10:46:37.112Z,61.71
2023-02-04T10:48:58.605Z,62.81
2023-02-04T10:51:20.048Z,63.54
2023-02-04T10:54:00.155Z,62.24
2023-02-04T10:56:21.923Z,60.92
2023-02-04T10:58:44.156Z,60.79
2023-02-04T11:01:10.948Z,61.17
2023-02-04T11:03:32.478Z,59.69
2023-02-04T11:05:57.432Z,60.94
2023-02-04T11:08:29.565Z,59.69
2023-02-04T11:11:00.846Z,61.11
2023-02-04T11:13:38.727Z,60.46
2023-02-04T11:16:18.446Z,60.93
2023-02-04T11:19:04.209Z,60.99
2023-02-04T11:21:25.692Z,61.44
2023-02-04T11:23:47.724Z,61.05
2023-02-04T11:26:17.257Z,61.45
2023-02-04T11:28:58.932Z,60.80
2023-02-04T11:31:20.387Z,61.26
2023-02-04T11:33:42.639Z,60.74
2023-02-04T11:36:07.022Z,61.83
2023-02-04T11:38:31.821Z,60.88
2023-02-04T11:40:57.771Z,61.06
2023-02-04T11:43:21.092Z,60.23
2023-02-04T11:45:43.900Z,60.16
2023-02-04T11:48:21.592Z,62.79
2023-02-04T11:50:43.338Z,62.86
2023-02-04T11:53:05.730Z,61.97
2023-02-04T11:55:28.275Z,61.31
2023-02-04T11:57:55.223Z,61.72
2023-02-04T12:00:29.213Z,62.24
2023-02-04T12:03:00.239Z,61.10
2023-02-04T12:05:21.896Z,61.85
2023-02-04T12:07:44.254Z,61.46
2023-02-04T12:10:33.713Z,61.26
2023-02-04T12:12:59.713Z,60.89
2023-02-04T12:15:33.542Z,61.15
2023-02-04T12:18:07.560Z,60.35
2023-02-04T12:20:29.255Z,59.07
2023-02-04T12:22:50.683Z,58.83
2023-02-04T12:25:16.774Z,57.77
2023-02-04T12:27:38.230Z,57.72
2023-02-04T12:29:59.648Z,57.47
2023-02-04T12:32:21.338Z,58.10
2023-02-04T12:34:42.766Z,57.07
2023-02-04T12:37:04.196Z,56.46
2023-02-04T12:39:25.708Z,54.25
2023-02-04T12:41:47.165Z,56.16
2023-02-04T12:44:08.678Z,55.57
2023-02-04T12:46:30.464Z,51.81
2023-02-04T12:48:52.007Z,52.15
2023-02-04T12:51:13.456Z,52.85
2023-02-04T12:53:34.884Z,54.04
2023-02-04T12:55:57.810Z,53.69
2023-02-04T12:58:19.364Z,52.94
2023-02-04T13:00:42.188Z,53.88
2023-02-04T13:03:03.920Z,54.36
2023-02-04T13:05:26.203Z,53.31
2023-02-04T13:07:47.664Z,53.05
2023-02-04T13:10:10.229Z,50.60
2023-02-04T13:12:31.698Z,52.00
2023-02-04T13:14:53.126Z,49.47
2023-02-04T13:17:14.639Z,49.65
2023-02-04T13:19:36.417Z,50.24
2023-02-04T13:21:58.749Z,52.01
2023-02-04T13:24:20.181Z,52.22
2023-02-04T13:26:41.628Z,51.92
2023-02-04T13:29:03.464Z,51.91
2023-02-04T13:31:24.946Z,52.53
2023-02-04T13:33:46.489Z,51.97
2023-02-04T13:36:08.025Z,51.02
2023-02-04T13:38:29.540Z,50.25
2023-02-04T13:40:51.005Z,50.78
2023-02-04T13:43:12.541Z,50.42
2023-02-04T13:45:34.513Z,50.66
2023-02-04T13:47:56.156Z,50.94
2023-02-04T13:50:17.850Z,51.15
2023-02-04T13:52:39.353Z,51.12
2023-02-04T13:55:01.235Z,50.75
2023-02-04T13:57:23.093Z,50.82
2023-02-04T13:59:44.597Z,51.59
2023-02-04T14:02:06.256Z,51.12
2023-02-04T14:04:27.828Z,51.04
2023-02-04T14:06:49.325Z,51.99
2023-02-04T14:09:14.969Z,51.57
2023-02-04T14:11:36.741Z,52.05
2023-02-04T14:13:58.195Z,53.07
2023-02-04T14:16:19.928Z,52.71
2023-02-04T14:18:41.496Z,52.33
2023-02-04T14:21:03.089Z,53.19
2023-02-04T14:23:24.616Z,53.37
2023-02-04T14:25:46.039Z,52.84
2023-02-04T14:28:07.663Z,52.22
2023-02-04T14:30:30.255Z,50.99
2023-02-04T14:32:52.430Z,51.90
2023-02-04T14:35:14.531Z,52.14
2023-02-04T14:37:35.968Z,51.64
2023-02-04T14:39:57.441Z,51.78
2023-02-04T14:42:18.874Z,51.58
2023-02-04T14:44:40.320Z,51.16
2023-02-04T14:47:01.766Z,51.60
2023-02-04T14:49:23.196Z,51.50
2023-02-04T14:51:44.691Z,50.83
2023-02-04T14:54:06.169Z,50.82
2023-02-04T14:56:27.613Z,51.51
2023-02-04T14:58:49.051Z,51.10
2023-02-04T15:01:10.716Z,52.74
2023-02-04T15:03:32.183Z,52.79
2023-02-04T15:05:53.575Z,53.09
2023-02-04T15:08:15.054Z,53.39
2023-02-04T15:10:37.044Z,54.21
2023-02-04T15:12:59.195Z,54.96
2023-02-04T15:15:21.065Z,55.08
2023-02-04T15:17:42.729Z,54.94
2023-02-04T15:20:05.104Z,55.45
2023-02-04T15:22:26.675Z,56.25
2023-02-04T15:24:48.641Z,55.13
2023-02-04T15:27:10.093Z,55.29
2023-02-04T15:29:31.960Z,55.60
2023-02-04T15:31:53.557Z,56.10
2023-02-04T15:34:15.138Z,55.25
2023-02-04T15:36:36.566Z,56.10
2023-02-04T15:38:58.018Z,56.33
2023-02-04T15:41:19.497Z,56.21
2023-02-04T15:43:40.999Z,57.02
2023-02-04T15:46:02.661Z,56.86
2023-02-04T15:48:24.200Z,57.06
2023-02-04T15:50:45.685Z,57.21
2023-02-04T15:53:07.134Z,57.52
2023-02-04T15:55:29.100Z,57.63
2023-02-04T15:57:50.587Z,57.92
2023-02-04T16:00:12.598Z,58.40
2023-02-04T16:02:34.126Z,58.57
2023-02-04T16:04:55.585Z,58.33
2023-02-04T16:07:17.271Z,58.91
2023-02-04T16:09:38.936Z,59.22
2023-02-04T16:12:01.102Z,59.48
2023-02-04T16:14:22.563Z,59.81
2023-02-04T16:16:44.241Z,60.13
2023-02-04T16:19:05.679Z,60.44
2023-02-04T16:21:27.155Z,60.27
2023-02-04T16:23:48.684Z,60.50
2023-02-04T16:26:10.209Z,61.02
2023-02-04T16:28:31.694Z,61.42
2023-02-04T16:30:54.334Z,61.35
2023-02-04T16:33:15.824Z,61.13
2023-02-04T16:36:03.696Z,61.88
2023-02-04T16:38:26.100Z,61.92
2023-02-04T16:40:47.564Z,61.41
2023-02-04T16:43:09.035Z,61.43
2023-02-04T16:45:30.707Z,61.97
2023-02-04T16:47:52.642Z,60.16
2023-02-04T16:50:14.129Z,61.15
2023-02-04T16:52:35.596Z,61.32
2023-02-04T16:54:57.974Z,60.33
2023-02-04T16:57:19.404Z,60.44
2023-02-04T16:59:40.895Z,61.63
2023-02-04T17:02:02.423Z,61.79
2023-02-04T17:04:25.234Z,62.21
2023-02-04T17:06:46.676Z,62.60
2023-02-04T17:09:09.289Z,62.75
2023-02-04T17:11:31.571Z,62.50
2023-02-04T17:13:53.164Z,62.95
2023-02-04T17:16:14.681Z,63.13
2023-02-04T17:18:36.215Z,63.48
2023-02-04T17:20:59.135Z,63.90
2023-02-04T17:23:20.599Z,63.78
2023-02-04T17:25:42.038Z,64.37
2023-02-04T17:28:03.554Z,64.61
2023-02-04T17:30:25.093Z,64.33
2023-02-04T17:32:46.610Z,64.81
2023-02-04T17:35:08.253Z,64.55
2023-02-04T17:37:29.661Z,64.78
2023-02-04T17:39:51.128Z,65.34
2023-02-04T17:42:12.561Z,66.05
2023-02-04T17:44:34.021Z,66.11
2023-02-04T17:46:55.905Z,66.89
2023-02-04T17:49:17.415Z,67.22
2023-02-04T17:51:38.860Z,67.13
2023-02-04T17:54:00.474Z,67.39
2023-02-04T17:56:22.048Z,67.14
2023-02-04T17:58:43.809Z,67.29
2023-02-04T18:01:14.796Z,67.58
2023-02-04T18:03:36.620Z,67.56
2023-02-04T18:05:58.955Z,67.89
2023-02-04T18:08:31.758Z,68.54
2023-02-04T18:10:55.291Z,68.23
2023-02-04T18:13:19.187Z,67.94
2023-02-04T18:15:41.486Z,68.44
2023-02-04T18:18:26.926Z,68.36
2023-02-04T18:20:56.300Z,68.39
2023-02-04T18:23:19.343Z,68.23
2023-02-04T18:25:41.018Z,68.34
2023-02-04T18:28:13.556Z,68.53
2023-02-04T18:30:35.460Z,69.95
2023-02-04T18:32:57.236Z,69.62
2023-02-04T18:35:37.142Z,69.87
2023-02-04T18:37:58.612Z,69.83
2023-02-04T18:40:30.481Z,69.75
2023-02-04T18:43:02.903Z,70.13
2023-02-04T18:45:30.326Z,69.95
2023-02-04T18:48:25.203Z,69.98
2023-02-04T18:50:48.410Z,70.07
2023-02-04T18:53:16.312Z,71.03
2023-02-04T18:55:40.184Z,70.86
2023-02-04T18:58:17.139Z,71.11
2023-02-04T19:00:38.887Z,71.37
2023-02-04T19:03:16.336Z,71.01
2023-02-04T19:05:50.481Z,71.03
2023-02-04T19:08:27.228Z,70.82
2023-02-04T19:10:50.106Z,70.50
2023-02-04T19:13:17.634Z,70.95
2023-02-04T19:15:39.696Z,70.90
2023-02-04T19:18:16.054Z,71.06
2023-02-04T19:20:38.681Z,70.68
2023-02-04T19:23:00.104Z,70.61
2023-02-04T19:25:24.509Z,70.93
2023-02-04T19:27:50.463Z,70.68
2023-02-04T19:30:30.407Z,71.02
2023-02-04T19:32:55.825Z,71.28
2023-02-04T19:35:20.294Z,71.27
2023-02-04T19:37:41.765Z,71.13
2023-02-04T19:40:22.570Z,71.06
2023-02-04T19:42:44.334Z,71.24
2023-02-04T19:45:23.800Z,71.11
2023-02-04T19:47:45.683Z,71.32
2023-02-04T19:50:13.469Z,71.44
2023-02-04T19:52:37.596Z,71.31
2023-02-04T19:55:27.442Z,72.20
2023-02-04T19:57:54.889Z,72.09
2023-02-04T20:00:34.830Z,71.75
2023-02-04T20:02:57.568Z,72.19
2023-02-04T20:05:20.570Z,72.03
2023-02-04T20:07:41.993Z,71.65
2023-02-04T20:10:06.149Z,71.86
2023-02-04T20:12:29.821Z,71.63
2023-02-04T20:14:56.912Z,71.58
2023-02-04T20:17:33.654Z,71.66
2023-02-04T20:19:59.377Z,71.81
2023-02-04T20:22:21.756Z,72.65
2023-02-04T20:24:45.966Z,72.42
2023-02-04T20:27:16.535Z,72.25
2023-02-04T20:29:38.066Z,72.76
2023-02-04T20:31:59.483Z,72.62
2023-02-04T20:34:23.152Z,72.65
2023-02-04T20:36:46.006Z,72.39
2023-02-04T20:39:29.053Z,72.34
2023-02-04T20:41:50.503Z,72.29
2023-02-04T20:44:16.673Z,72.22
2023-02-04T20:46:38.153Z,72.36
2023-02-04T20:48:59.619Z,72.56
2023-02-04T20:51:23.794Z,72.22
2023-02-04T20:53:49.434Z,72.39
2023-02-04T20:56:28.588Z,72.90
2023-02-04T20:58:51.153Z,72.58
2023-02-04T21:01:35.175Z,72.30
2023-02-04T21:03:58.006Z,72.58
2023-02-04T21:06:31.565Z,72.54
2023-02-04T21:08:54.694Z,72.50
2023-02-04T21:11:16.357Z,72.65
2023-02-04T21:13:38.748Z,72.24
2023-02-04T21:16:00.630Z,72.36
2023-02-04T21:18:22.374Z,72.18
2023-02-04T21:20:44.531Z,72.29
2023-02-04T21:23:06.355Z,72.24
2023-02-04T21:25:27.847Z,72.06
2023-02-04T21:27:49.305Z,71.87
2023-02-04T21:30:11.427Z,72.17
2023-02-04T21:32:33.102Z,71.75
2023-02-04T21:34:54.537Z,72.25
2023-02-04T21:37:16.008Z,72.78
2023-02-04T21:39:37.491Z,72.80
2023-02-04T21:42:19.214Z,72.69
2023-02-04T21:44:40.721Z,72.31
2023-02-04T21:47:02.288Z,72.61
2023-02-04T21:49:23.721Z,73.16
2023-02-04T21:51:45.167Z,73.22
2023-02-04T21:54:06.757Z,72.80
2023-02-04T21:56:28.331Z,72.72
2023-02-04T21:58:49.770Z,72.93
2023-02-04T22:01:11.291Z,72.72
2023-02-04T22:03:32.907Z,71.89
2023-02-04T22:05:54.559Z,72.10
2023-02-04T22:08:16.392Z,72.22
2023-02-04T22:10:38.249Z,72.53
2023-02-04T22:13:18.206Z,73.70
2023-02-04T22:15:39.666Z,74.02
2023-02-04T22:18:01.152Z,73.28
2023-02-04T22:20:24.758Z,73.53
2023-02-04T22:22:47.308Z,73.08
2023-02-04T22:25:09.079Z,73.36
2023-02-04T22:27:30.523Z,73.06
2023-02-04T22:29:52.015Z,73.45
2023-02-04T22:32:13.572Z,73.50
2023-02-04T22:34:35.019Z,73.52
2023-02-04T22:36:56.469Z,73.77
2023-02-04T22:39:17.898Z,73.37
2023-02-04T22:41:39.404Z,73.91
2023-02-04T22:44:01.415Z,73.39
2023-02-04T22:46:23.001Z,73.68
2023-02-04T22:48:44.539Z,73.78
2023-02-04T22:51:06.018Z,73.26
2023-02-04T22:53:27.446Z,73.60
2023-02-04T22:55:48.878Z,73.28
2023-02-04T22:58:10.319Z,73.83
2023-02-04T23:00:32.248Z,74.29
2023-02-04T23:02:53.758Z,73.76
2023-02-04T23:05:15.167Z,73.86
2023-02-04T23:07:36.964Z,73.65
2023-02-04T23:09:58.424Z,73.93
2023-02-04T23:12:19.946Z,73.88
2023-02-04T23:14:45.947Z,73.71
2023-02-04T23:17:07.757Z,72.99
2023-02-04T23:19:29.187Z,72.97
2023-02-04T23:21:50.651Z,73.29
2023-02-04T23:24:12.103Z,74.33
2023-02-04T23:26:33.648Z,73.74
2023-02-04T23:28:55.690Z,74.15
2023-02-04T23:31:17.454Z,73.50
2023-02-04T23:33:39.086Z,73.58
2023-02-04T23:36:00.699Z,73.37
2023-02-04T23:38:22.226Z,73.74
2023-02-04T23:40:43.678Z,73.54
2023-02-04T23:43:05.170Z,73.66
2023-02-04T23:45:26.572Z,73.85
2023-02-04T23:47:48.012Z,73.36
2023-02-04T23:50:09.905Z,73.56
2023-02-04T23:52:31.425Z,73.69
2023-02-04T23:54:52.892Z,74.33
2023-02-04T23:57:14.353Z,74.92
2023-02-04T23:59:36.281Z,74.54
